Time;durP1;ratioP1;P1;durP2;ratioP2;P2;SDS_P1;SDS_P2;PMS_P1;PMS_P2;Temp;Humidity;BMP_temperature;BMP_pressure;BME280_temperature;BME280_humidity;BME280_pressure;Samples;Min_cycle;Max_cycle;Signal;HPM_P1;HPM_P2
2023/04/01 00:00:55;;;;;;;22.17;16.20;;;14.40;93.20;;;;;;6263788;23;20000;-77
2023/04/01 00:03:22;;;;;;;23.27;16.30;;;14.40;93.30;;;;;;6261836;23;20004;-78
2023/04/01 00:05:48;;;;;;;28.80;16.70;;;14.40;93.30;;;;;;6266178;23;20026;-77
2023/04/01 00:08:14;;;;;;;21.75;15.55;;;14.40;93.30;;;;;;6265092;23;20083;-77
2023/04/01 00:10:40;;;;;;;18.70;14.85;;;14.40;93.30;;;;;;6264928;23;20115;-75
2023/04/01 00:13:07;;;;;;;23.70;16.35;;;14.40;93.30;;;;;;6264006;23;19980;-76
2023/04/01 00:15:33;;;;;;;20.88;15.30;;;14.40;93.30;;;;;;6262105;23;20355;-77
2023/04/01 00:17:58;;;;;;;25.45;17.05;;;14.40;93.30;;;;;;6229310;23;20000;-76
2023/04/01 00:20:25;;;;;;;26.30;15.80;;;14.40;93.50;;;;;;6252759;23;20019;-76
2023/04/01 00:22:51;;;;;;;22.40;15.48;;;14.30;93.50;;;;;;6220762;23;20119;-77
2023/04/01 00:25:16;;;;;;;22.08;16.52;;;14.30;93.70;;;;;;6246577;23;20000;-76
2023/04/01 00:27:42;;;;;;;23.35;16.77;;;14.20;93.60;;;;;;6246639;23;20053;-76
2023/04/01 00:30:09;;;;;;;24.10;17.67;;;14.20;93.70;;;;;;6250358;23;20008;-76
2023/04/01 00:32:35;;;;;;;20.90;16.45;;;14.20;93.80;;;;;;6223151;23;20035;-76
2023/04/01 00:35:01;;;;;;;24.10;18.23;;;14.10;93.70;;;;;;6248948;23;20019;-77
2023/04/01 00:37:28;;;;;;;22.48;17.40;;;14.10;93.80;;;;;;6247309;23;20004;-76
2023/04/01 00:39:53;;;;;;;28.70;19.17;;;14.10;94.00;;;;;;6246546;23;20005;-76
2023/04/01 00:42:19;;;;;;;30.48;19.92;;;14.10;93.90;;;;;;6246059;23;20008;-77
2023/04/01 00:44:50;;;;;;;25.35;19.38;;;14.10;94.00;;;;;;6246244;23;20086;-78
2023/04/01 00:47:16;;;;;;;23.17;17.30;;;14.00;94.20;;;;;;6246285;23;20004;-77
2023/04/01 00:49:48;;;;;;;21.50;17.45;;;13.90;93.90;;;;;;6246436;23;20083;-77
2023/04/01 00:52:18;;;;;;;25.83;16.60;;;13.90;93.90;;;;;;6245456;23;20004;-77
2023/04/01 00:54:45;;;;;;;;;;;13.80;94.10;;;;;;6246625;23;19997;-78
2023/04/01 00:57:32;;;;;;;22.75;16.00;;;13.80;94.00;;;;;;6245676;23;19899;-77
2023/04/01 00:59:59;;;;;;;28.75;19.23;;;13.80;94.10;;;;;;6244830;23;20464;-77
2023/04/01 01:02:25;;;;;;;21.58;16.73;;;13.70;94.40;;;;;;6244509;23;20050;-77
2023/04/01 01:04:51;;;;;;;26.92;19.20;;;13.60;94.40;;;;;;6244378;23;20004;-77
2023/04/01 01:07:35;;;;;;;21.33;16.20;;;13.60;94.60;;;;;;6244912;23;20354;-77
2023/04/01 01:10:17;;;;;;;26.02;18.63;;;13.60;94.50;;;;;;6244933;23;20084;-76
2023/04/01 01:13:00;;;;;;;24.48;19.17;;;13.60;94.20;;;;;;6244799;23;20490;-78
2023/04/01 01:15:35;;;;;;;26.13;18.98;;;13.60;94.20;;;;;;6243933;23;20075;-77
2023/04/01 01:18:27;;;;;;;24.20;18.27;;;13.60;94.40;;;;;;6244869;23;20001;-77
2023/04/01 01:21:28;;;;;;;20.90;16.83;;;13.60;94.40;;;;;;6218232;23;20020;-82
2023/04/01 01:24:38;;;;;;;22.70;16.92;;;13.60;94.30;;;;;;6244398;23;20004;-82
2023/04/01 01:27:08;;;;;;;28.50;19.80;;;13.60;94.30;;;;;;6110469;23;20098;-81
2023/04/01 01:29:58;;;;;;;20.13;16.10;;;13.50;94.30;;;;;;6244484;23;20035;-82
2023/04/01 01:32:57;;;;;;;21.63;16.38;;;13.50;94.30;;;;;;6243886;23;20038;-81
2023/04/01 01:35:53;;;;;;;21.75;16.42;;;13.50;94.30;;;;;;6244021;23;20004;-81
2023/04/01 01:38:23;;;;;;;23.52;17.35;;;15.80;94.90;;;;;;6243548;23;20358;-82
2023/04/01 01:40:53;;;;;;;22.52;16.75;;;13.50;94.30;;;;;;6244616;23;20008;-81
2023/04/01 01:43:23;;;;;;;22.40;17.80;;;13.50;94.30;;;;;;6243465;23;20011;-81
2023/04/01 01:45:54;;;;;;;22.55;16.60;;;13.50;94.10;;;;;;6244724;23;20018;-83
2023/04/01 01:48:21;;;;;;;23.33;17.42;;;13.40;94.20;;;;;;6243115;23;20067;-82
2023/04/01 01:50:48;;;;;;;26.10;18.23;;;13.40;94.30;;;;;;6216090;23;20095;-82
2023/04/01 01:53:14;;;;;;;23.67;18.25;;;13.40;94.20;;;;;;6243970;23;20066;-82
2023/04/01 01:55:43;;;;;;;24.15;17.77;;;13.40;94.20;;;;;;6244004;23;20071;-81
2023/04/01 01:58:23;;;;;;;21.00;17.17;;;13.40;94.20;;;;;;6244168;23;20058;-81
2023/04/01 02:00:58;;;;;;;20.45;16.20;;;13.40;94.20;;;;;;6218894;23;20073;-82
2023/04/01 02:03:28;;;;;;;20.58;16.30;;;13.40;93.90;;;;;;6245821;23;20019;-81
2023/04/01 02:05:57;;;;;;;21.38;17.30;;;13.30;94.10;;;;;;6246008;23;20426;-82
2023/04/01 02:08:34;;;;;;;24.15;16.77;;;13.30;94.00;;;;;;6244876;23;20008;-82
2023/04/01 02:11:04;;;;;;;20.02;15.25;;;13.20;94.00;;;;;;6245926;23;20011;-81
2023/04/01 02:13:30;;;;;;;;;;;13.20;93.80;;;;;;6246202;23;20323;-82
2023/04/01 02:16:01;;;;;;;17.88;14.40;;;13.20;93.80;;;;;;6246272;23;19899;-81
2023/04/01 02:18:29;;;;;;;16.85;14.55;;;13.10;93.80;;;;;;6244855;23;20713;-81
2023/04/01 02:20:59;;;;;;;17.77;14.68;;;13.10;93.80;;;;;;6218700;23;20099;-81
2023/04/01 02:23:25;;;;;;;18.57;14.43;;;13.10;93.80;;;;;;6244887;23;20367;-81
2023/04/01 02:25:51;;;;;;;17.40;14.07;;;13.10;93.80;;;;;;6245859;23;20231;-81
2023/04/01 02:28:20;;;;;;;20.67;15.57;;;13.20;93.70;;;;;;6245247;23;20015;-82
2023/04/01 02:30:47;;;;;;;17.27;13.05;;;13.10;93.60;;;;;;6245471;23;20076;-81
2023/04/01 02:33:14;;;;;;;16.95;12.90;;;13.10;93.60;;;;;;6245438;23;20050;-81
2023/04/01 02:35:39;;;;;;;15.85;12.98;;;13.10;93.70;;;;;;6244658;23;20422;-81
2023/04/01 02:38:06;;;;;;;15.82;12.57;;;13.10;93.80;;;;;;6244987;23;20003;-81
2023/04/01 02:40:49;;;;;;;16.52;12.10;;;13.10;93.80;;;;;;6245403;23;20057;-81
2023/04/01 02:43:16;;;;;;;17.85;14.07;;;13.10;93.80;;;;;;6245627;23;20004;-81
2023/04/01 02:45:42;;;;;;;15.63;12.20;;;13.00;93.50;;;;;;6245101;23;20023;-81
2023/04/01 02:48:08;;;;;;;16.13;12.50;;;13.00;93.70;;;;;;6245203;23;20075;-80
2023/04/01 02:50:34;;;;;;;17.10;12.75;;;13.00;93.70;;;;;;6245616;23;20035;-80
2023/04/01 02:53:00;;;;;;;17.58;13.45;;;13.00;93.70;;;;;;6246658;23;20430;-79
2023/04/01 02:55:26;;;;;;;16.92;12.70;;;13.00;93.70;;;;;;6244299;23;20004;-80
2023/04/01 02:57:52;;;;;;;15.68;13.48;;;13.00;93.60;;;;;;6245995;23;20313;-80
2023/04/01 03:00:17;;;;;;;16.40;13.32;;;13.00;93.60;;;;;;6244782;23;20004;-80
2023/04/01 03:02:44;;;;;;;17.08;13.63;;;13.10;93.50;;;;;;6245435;23;20004;-81
2023/04/01 03:05:09;;;;;;;18.88;13.77;;;13.00;93.40;;;;;;6244720;23;20020;-81
2023/04/01 03:07:35;;;;;;;19.30;14.38;;;13.00;93.30;;;;;;6243312;23;20024;-80
2023/04/01 03:10:01;;;;;;;19.25;13.40;;;13.00;93.40;;;;;;6244598;23;20016;-81
2023/04/01 03:12:27;;;;;;;16.98;13.52;;;13.00;93.20;;;;;;6245421;23;20024;-81
2023/04/01 03:14:52;;;;;;;16.17;13.77;;;13.00;93.30;;;;;;6245771;23;20318;-81
2023/04/01 03:17:18;;;;;;;20.63;13.70;;;13.00;93.10;;;;;;6246040;23;20054;-81
2023/04/01 03:19:44;;;;;;;16.08;13.13;;;13.00;93.30;;;;;;6244259;23;20004;-81
2023/04/01 03:22:12;;;;;;;19.10;14.82;;;12.90;93.40;;;;;;6244800;23;20004;-81
2023/04/01 03:24:38;;;;;;;16.67;14.43;;;12.90;93.40;;;;;;6245092;23;20430;-81
2023/04/01 03:27:03;;;;;;;20.67;14.13;;;12.90;93.30;;;;;;6245138;23;20007;-82
2023/04/01 03:29:29;;;;;;;17.20;14.27;;;12.90;93.30;;;;;;6244836;23;20054;-81
2023/04/01 03:31:57;;;;;;;17.88;13.88;;;12.90;93.30;;;;;;6244317;23;20323;-80
2023/04/01 03:34:23;;;;;;;17.90;12.93;;;12.90;93.40;;;;;;6245078;23;20370;-80
2023/04/01 03:36:49;;;;;;;20.77;15.15;;;12.90;93.20;;;;;;6244501;23;20461;-81
2023/04/01 03:39:18;;;;;;;19.95;15.23;;;12.80;93.10;;;;;;6243969;23;19997;-81
2023/04/01 03:41:45;;;;;;;17.42;14.35;;;12.80;93.20;;;;;;6244474;23;19997;-82
2023/04/01 03:44:11;;;;;;;17.48;13.68;;;12.80;93.10;;;;;;6243388;23;20401;-81
2023/04/01 03:46:36;;;;;;;15.00;12.85;;;12.80;93.30;;;;;;6244193;23;20000;-83
2023/04/01 03:49:02;;;;;;;19.90;14.18;;;12.70;93.30;;;;;;6244640;23;20074;-82
2023/04/01 03:51:28;;;;;;;18.63;13.73;;;12.80;93.30;;;;;;6245333;23;20057;-83
2023/04/01 03:53:54;;;;;;;15.50;12.63;;;12.80;93.10;;;;;;6244763;23;20004;-82
2023/04/01 03:56:20;;;;;;;17.58;13.80;;;12.80;93.10;;;;;;6243006;23;20028;-81
2023/04/01 03:58:45;;;;;;;17.77;14.27;;;12.80;93.10;;;;;;6244733;23;20003;-81
2023/04/01 04:01:23;;;;;;;17.27;13.77;;;12.70;93.00;;;;;;6244387;23;20009;-82
2023/04/01 04:03:49;;;;;;;19.10;14.35;;;12.70;93.00;;;;;;6244922;23;20010;-81
2023/04/01 04:06:16;;;;;;;16.65;13.48;;;12.70;93.10;;;;;;6244573;23;20007;-82
2023/04/01 04:08:42;;;;;;;18.27;14.10;;;12.60;92.90;;;;;;6244157;23;20004;-81
2023/04/01 04:11:08;;;;;;;17.05;13.55;;;12.70;93.10;;;;;;6243804;23;20304;-81
2023/04/01 04:13:35;;;;;;;18.25;14.05;;;12.70;93.10;;;;;;6245012;23;20000;-82
2023/04/01 04:16:02;;;;;;;19.58;14.95;;;12.70;93.00;;;;;;6244707;23;20026;-82
2023/04/01 04:18:27;;;;;;;21.70;14.85;;;12.70;92.90;;;;;;6244198;23;20000;-81
2023/04/01 04:20:53;;;;;;;19.80;15.25;;;12.70;92.90;;;;;;6244607;23;20020;-81
2023/04/01 04:23:19;;;;;;;19.83;13.93;;;12.70;93.00;;;;;;6244277;23;20170;-82
2023/04/01 04:26:03;;;;;;;19.55;14.45;;;12.60;93.10;;;;;;6244378;23;20315;-81
2023/04/01 04:28:29;;;;;;;19.30;14.13;;;12.50;93.00;;;;;;6244043;23;20012;-81
2023/04/01 04:30:55;;;;;;;19.52;14.43;;;12.50;93.20;;;;;;6244435;23;20004;-81
2023/04/01 04:33:22;;;;;;;23.27;15.82;;;12.50;93.10;;;;;;6243032;23;20008;-82
2023/04/01 04:35:48;;;;;;;19.60;15.00;;;12.50;93.20;;;;;;6244667;23;20039;-81
2023/04/01 04:38:13;;;;;;;19.83;14.85;;;12.40;93.20;;;;;;6243554;23;19996;-82
2023/04/01 04:40:40;;;;;;;18.88;14.85;;;12.50;93.00;;;;;;6244726;23;20004;-81
2023/04/01 04:43:06;;;;;;;16.45;13.40;;;12.50;92.90;;;;;;6243670;23;20004;-82
2023/04/01 04:45:32;;;;;;;17.35;14.75;;;12.40;93.10;;;;;;6217782;23;20317;-81
2023/04/01 04:47:58;;;;;;;19.52;15.73;;;12.30;93.10;;;;;;6244085;23;20004;-81
2023/04/01 04:50:24;;;;;;;22.50;15.70;;;12.30;93.30;;;;;;6243406;23;20102;-81
2023/04/01 04:52:50;;;;;;;19.33;14.30;;;12.30;93.00;;;;;;6243656;23;20005;-78
2023/04/01 04:55:16;;;;;;;19.33;14.68;;;12.30;93.10;;;;;;6243910;23;20000;-79
2023/04/01 04:57:42;;;;;;;20.35;15.18;;;12.30;93.10;;;;;;6244425;23;20004;-80
2023/04/01 05:00:09;;;;;;;19.63;14.27;;;12.30;93.00;;;;;;6244044;23;20000;-80
2023/04/01 05:02:36;;;;;;;19.42;14.73;;;12.30;93.20;;;;;;6244128;23;20465;-80
2023/04/01 05:05:01;;;;;;;17.73;14.85;;;12.30;93.10;;;;;;6243043;23;20064;-80
2023/04/01 05:07:27;;;;;;;17.02;14.20;;;12.20;93.10;;;;;;6244006;23;20035;-80
2023/04/01 05:09:53;;;;;;;18.38;14.55;;;12.20;93.20;;;;;;6243649;23;20054;-80
2023/04/01 05:12:18;;;;;;;17.88;13.77;;;12.10;93.20;;;;;;6244011;23;20063;-80
2023/04/01 05:14:44;;;;;;;18.52;14.98;;;12.20;93.40;;;;;;6244520;23;20047;-80
2023/04/01 05:17:13;;;;;;;21.35;15.18;;;12.20;93.40;;;;;;6244061;23;20050;-80
2023/04/01 05:19:39;;;;;;;18.13;14.23;;;12.20;93.40;;;;;;6243935;23;20000;-80
2023/04/01 05:22:05;;;;;;;18.20;14.68;;;12.30;93.20;;;;;;6244174;23;20007;-80
2023/04/01 05:24:32;;;;;;;19.98;15.18;;;12.30;93.10;;;;;;6243302;23;20003;-82
2023/04/01 05:26:58;;;;;;;16.90;14.35;;;12.30;93.10;;;;;;6217333;23;20122;-82
2023/04/01 05:29:25;;;;;;;18.20;14.20;;;12.30;93.00;;;;;;6244001;23;20008;-82
2023/04/01 05:31:51;;;;;;;19.08;14.75;;;12.30;93.00;;;;;;6244284;23;20004;-82
2023/04/01 05:34:16;;;;;;;16.65;13.27;;;12.30;93.00;;;;;;6244782;23;20469;-83
2023/04/01 05:36:43;;;;;;;18.98;15.18;;;12.20;92.80;;;;;;6245842;23;20508;-83
2023/04/01 05:39:09;;;;;;;22.27;15.10;;;12.20;93.00;;;;;;6218070;23;20004;-85
2023/04/01 05:41:38;;;;;;;15.18;13.05;;;12.20;92.80;;;;;;6244997;23;20311;-81
2023/04/01 05:44:04;;;;;;;16.10;12.83;;;;;;;;;;6245281;23;20027;-82
2023/04/01 05:46:31;;;;;;;16.77;13.07;;;12.20;92.90;;;;;;6244791;23;20252;-81
2023/04/01 05:48:57;;;;;;;16.80;13.15;;;12.20;92.90;;;;;;6246100;23;20411;-81
2023/04/01 05:51:23;;;;;;;17.60;13.02;;;12.30;93.10;;;;;;6245149;23;20004;-81
2023/04/01 05:53:49;;;;;;;45.95;15.35;;;12.40;93.10;;;;;;6219034;23;20319;-81
2023/04/01 05:56:15;;;;;;;17.80;12.50;;;12.30;93.10;;;;;;6245677;23;20007;-82
2023/04/01 05:58:41;;;;;;;17.48;12.73;;;12.40;93.00;;;;;;6245603;23;19996;-82
2023/04/01 06:01:09;;;;;;;15.02;12.52;;;12.40;92.90;;;;;;6193476;23;20055;-81
2023/04/01 06:03:35;;;;;;;17.63;13.02;;;12.50;92.80;;;;;;6245618;23;20004;-82
2023/04/01 06:06:01;;;;;;;17.45;13.20;;;12.40;92.80;;;;;;6246583;23;20422;-82
2023/04/01 06:08:29;;;;;;;14.82;12.48;;;12.50;92.90;;;;;;6220682;23;20010;-82
2023/04/01 06:11:13;;;;;;;17.90;13.40;;;12.50;92.70;;;;;;6219615;23;20096;-82
2023/04/01 06:14:10;;;;;;;18.02;13.73;;;12.60;92.60;;;;;;6247002;23;20083;-82
2023/04/01 06:17:07;;;;;;;16.48;13.00;;;12.70;92.60;;;;;;6220459;23;20011;-90
2023/04/01 06:19:57;;;;;;;14.52;11.88;;;12.70;92.80;;;;;;6246069;23;19996;-83
2023/04/01 06:25:15;;;;;;;17.13;13.32;;;12.80;92.70;;;;;;6205886;22;20033;-82
2023/04/01 06:28:07;;;;;;;15.73;11.88;;;12.80;92.90;;;;;;6185708;23;20451;-80
2023/04/01 06:30:47;;;;;;;15.35;12.35;;;12.90;92.90;;;;;;6184155;23;20005;-81
2023/04/01 06:33:52;;;;;;;17.90;11.98;;;13.00;93.00;;;;;;6185315;23;20001;-81
2023/04/01 06:36:48;;;;;;;16.45;12.18;;;13.10;92.70;;;;;;6184495;23;20008;-79
2023/04/01 06:39:32;;;;;;;14.75;11.88;;;13.20;92.70;;;;;;6183916;23;20001;-80
2023/04/01 06:42:18;;;;;;;15.40;12.18;;;13.20;92.40;;;;;;6158704;23;20012;-80
2023/04/01 06:45:10;;;;;;;15.65;11.77;;;13.30;92.30;;;;;;6174204;23;20054;-80
2023/04/01 06:47:48;;;;;;;16.25;11.27;;;13.30;92.10;;;;;;6161267;23;20009;-80
2023/04/01 06:50:37;;;;;;;12.40;8.95;;;13.40;92.20;;;;;;6185298;23;20107;-80
2023/04/01 06:53:32;;;;;;;11.73;8.63;;;13.40;91.90;;;;;;6185501;23;20036;-80
2023/04/01 06:56:14;;;;;;;10.75;7.55;;;13.50;92.10;;;;;;6129731;23;20012;-80
2023/04/01 06:58:47;;;;;;;10.10;6.93;;;13.60;91.80;;;;;;6185756;23;20423;-80
2023/04/01 07:01:35;;;;;;;10.50;7.20;;;13.60;92.00;;;;;;6184869;23;20079;-80
2023/04/01 07:04:31;;;;;;;8.50;6.30;;;13.70;91.80;;;;;;6185090;23;20001;-80
2023/04/01 07:07:04;;;;;;;10.00;5.88;;;13.80;91.20;;;;;;6185317;23;20032;-80
2023/04/01 07:09:39;;;;;;;6.13;4.60;;;13.90;91.10;;;;;;6185456;23;20072;-80
2023/04/01 07:12:15;;;;;;;4.78;3.72;;;13.90;91.30;;;;;;6185181;23;20001;-80
2023/04/01 07:14:42;;;;;;;6.85;4.00;;;13.90;90.90;;;;;;6185109;23;20005;-80
2023/04/01 07:17:19;;;;;;;5.10;4.10;;;14.00;90.90;;;;;;6185803;23;20001;-81
2023/04/01 07:20:01;;;;;;;5.93;4.45;;;14.00;90.40;;;;;;6159107;23;20016;-80
2023/04/01 07:22:35;;;;;;;4.63;4.10;;;14.00;89.60;;;;;;6185456;23;20005;-81
2023/04/01 07:25:25;;;;;;;7.95;3.70;;;14.00;90.40;;;;;;6190886;23;20016;-81
2023/04/01 07:28:00;;;;;;;3.35;2.38;;;14.10;90.50;;;;;;6215813;23;20374;-81
2023/04/01 07:30:30;;;;;;;2.45;1.77;;;14.10;89.60;;;;;;6214589;23;20004;-80
2023/04/01 07:33:19;;;;;;;3.83;2.50;;;14.20;90.10;;;;;;6215959;23;20001;-80
2023/04/01 07:35:55;;;;;;;3.50;2.45;;;14.30;89.20;;;;;;6216258;23;20000;-80
2023/04/01 07:38:57;;;;;;;7.03;3.20;;;14.30;89.80;;;;;;6215000;23;20004;-80
2023/04/01 07:41:42;;;;;;;5.60;3.10;;;14.60;91.60;;;;;;6215068;23;20047;-80
2023/04/01 07:44:31;;;;;;;5.53;3.53;;;14.90;92.30;;;;;;6212248;23;20019;-80
2023/04/01 07:47:15;;;;;;;4.45;3.33;;;15.20;91.50;;;;;;6211577;23;20005;-87
2023/04/01 07:50:07;;;;;;;5.13;3.92;;;15.40;91.00;;;;;;6215657;23;20407;-86
2023/04/01 07:52:44;;;;;;;6.18;4.18;;;15.40;89.60;;;;;;6216810;23;20445;-86
2023/04/01 07:55:28;;;;;;;5.57;3.83;;;15.40;89.10;;;;;;6215784;23;20378;-86
2023/04/01 07:58:24;;;;;;;4.28;3.70;;;15.40;89.20;;;;;;6215894;23;20001;-86
2023/04/01 08:00:59;;;;;;;4.45;2.88;;;15.50;86.10;;;;;;6215516;23;20439;-87
2023/04/01 08:03:37;;;;;;;4.47;3.28;;;15.60;87.00;;;;;;6189139;23;20092;-87
2023/04/01 08:06:08;;;;;;;4.22;3.22;;;15.60;86.60;;;;;;6215217;23;20032;-87
2023/04/01 08:08:52;;;;;;;4.93;3.40;;;15.70;86.30;;;;;;6215517;23;20004;-86
2023/04/01 08:11:39;;;;;;;5.10;3.58;;;15.70;86.20;;;;;;6215515;23;20008;-87
2023/04/01 08:14:15;;;;;;;4.25;3.50;;;15.80;86.10;;;;;;6190140;23;20000;-89
2023/04/01 08:17:15;;;;;;;4.57;3.28;;;15.80;86.50;;;;;;6188959;23;20005;-87
2023/04/01 08:20:05;;;;;;;3.28;2.85;;;15.90;84.40;;;;;;6215815;23;20461;-87
2023/04/01 08:22:35;;;;;;;4.40;2.80;;;15.90;85.00;;;;;;6216220;23;20004;-87
2023/04/01 08:25:06;;;;;;;5.00;2.97;;;16.00;85.40;;;;;;6215886;23;20008;-87
2023/04/01 08:27:39;;;;;;;4.10;2.83;;;16.00;85.90;;;;;;6190011;23;20016;-87
2023/04/01 08:30:43;;;;;;;3.88;3.13;;;16.20;85.70;;;;;;6215457;23;20088;-87
2023/04/01 08:33:24;;;;;;;3.78;2.63;;;16.40;85.30;;;;;;6215776;23;20007;-80
2023/04/01 08:36:08;;;;;;;2.95;2.47;;;16.50;84.50;;;;;;6215854;23;20010;-80
2023/04/01 08:38:42;;;;;;;3.50;2.38;;;16.60;82.30;;;;;;6215522;23;20001;-80
2023/04/01 08:41:14;;;;;;;5.13;2.60;;;16.60;83.50;;;;;;6215152;23;20000;-80
2023/04/01 08:44:05;;;;;;;3.28;2.30;;;16.70;82.50;;;;;;6215005;23;20011;-80
2023/04/01 08:46:52;;;;;;;3.60;2.38;;;16.70;83.00;;;;;;6215389;23;20004;-80
2023/04/01 08:49:52;;;;;;;2.50;2.10;;;16.80;83.30;;;;;;6215673;23;20001;-80
2023/04/01 08:52:18;;;;;;;;;;;16.90;82.90;;;;;;6167833;23;20012;-80
2023/04/01 08:55:12;;;;;;;3.30;1.88;;;17.00;81.10;;;;;;6213708;23;19935;-80
2023/04/01 08:58:14;;;;;;;2.05;1.73;;;17.10;82.00;;;;;;6215093;23;20009;-80
2023/04/01 09:01:21;;;;;;;1.92;1.73;;;17.20;82.30;;;;;;6183535;23;20001;-80
2023/04/01 09:04:02;;;;;;;2.90;2.13;;;17.40;79.50;;;;;;6165757;23;20108;-87
2023/04/01 09:07:00;;;;;;;2.25;1.73;;;17.50;81.30;;;;;;6214486;23;19997;-85
2023/04/01 09:09:35;;;;;;;1.98;1.77;;;17.60;80.30;;;;;;6191316;23;20005;-86
2023/04/01 09:12:46;;;;;;;3.13;2.33;;;17.70;80.40;;;;;;6217409;23;20024;-85
2023/04/01 09:15:36;;;;;;;2.20;1.75;;;17.90;79.60;;;;;;6159860;23;20076;-86
2023/04/01 09:18:19;;;;;;;2.08;1.73;;;18.00;80.00;;;;;;6218062;23;20024;-87
2023/04/01 09:20:51;;;;;;;2.85;2.30;;;18.10;79.70;;;;;;6217247;23;20000;-86
2023/04/01 09:23:23;;;;;;;2.10;1.60;;;18.20;78.20;;;;;;6189568;23;20015;-86
2023/04/01 09:26:00;;;;;;;3.72;2.42;;;18.20;78.60;;;;;;6188245;23;20025;-86
2023/04/01 09:28:38;;;;;;;2.03;1.65;;;18.40;77.50;;;;;;6216372;23;20019;-86
2023/04/01 09:31:15;;;;;;;2.28;1.90;;;18.50;77.70;;;;;;6216933;23;20024;-86
2023/04/01 09:33:56;;;;;;;2.72;2.20;;;18.70;74.90;;;;;;6215580;23;20003;-84
2023/04/01 09:36:48;;;;;;;3.67;2.25;;;18.80;75.40;;;;;;6216515;23;20004;-86
2023/04/01 09:39:37;;;;;;;3.35;2.25;;;18.80;75.80;;;;;;6204985;23;20546;-84
2023/04/01 09:42:42;;;;;;;3.17;2.05;;;19.00;75.80;;;;;;6216861;23;20055;-83
2023/04/01 09:45:23;;;;;;;2.80;1.85;;;19.30;75.50;;;;;;6171744;23;20429;-83
2023/04/01 09:48:21;;;;;;;5.03;2.38;;;19.50;75.90;;;;;;6217174;23;19997;-83
2023/04/01 09:51:00;;;;;;;3.60;2.15;;;19.80;75.30;;;;;;6216982;23;20040;-83
2023/04/01 09:53:30;;;;;;;4.00;2.80;;;20.00;74.20;;;;;;6217083;23;20028;-83
2023/04/01 09:56:14;;;;;;;4.78;2.60;;;20.10;69.00;;;;;;6216999;23;20001;-82
2023/04/01 09:58:52;;;;;;;3.67;2.58;;;20.00;67.70;;;;;;6214926;23;20008;-82
2023/04/01 10:01:40;;;;;;;4.43;2.50;;;19.90;68.50;;;;;;6213827;23;20001;-82
2023/04/01 10:04:23;;;;;;;6.70;2.40;;;19.80;71.90;;;;;;6214300;23;20075;-83
2023/04/01 10:07:17;;;;;;;6.40;2.65;;;20.00;73.00;;;;;;6216067;23;20001;-86
2023/04/01 10:10:01;;;;;;;3.63;2.50;;;20.30;72.70;;;;;;6215292;23;20092;-82
2023/04/01 10:12:40;;;;;;;5.13;2.53;;;20.30;70.50;;;;;;6215225;23;20000;-83
2023/04/01 10:15:30;;;;;;;5.70;2.67;;;20.40;71.30;;;;;;6215459;23;19997;-84
2023/04/01 10:18:33;;;;;;;3.65;2.13;;;20.50;70.20;;;;;;6213270;23;20006;-84
2023/04/01 10:21:23;;;;;;;2.22;2.03;;;20.60;70.50;;;;;;6217962;23;20011;-83
2023/04/01 10:24:12;;;;;;;2.90;1.92;;;20.80;71.50;;;;;;6217903;23;20009;-83
2023/04/01 10:27:02;;;;;;;3.63;2.00;;;21.00;71.40;;;;;;6217604;23;20039;-83
2023/04/01 10:29:44;;;;;;;2.47;2.05;;;21.30;71.10;;;;;;6214481;23;20330;-82
2023/04/01 10:32:13;;;;;;;3.47;2.47;;;21.40;70.90;;;;;;6215269;23;20332;-83
2023/04/01 10:34:48;;;;;;;4.05;2.17;;;21.60;69.20;;;;;;6214189;23;20339;-84
2023/04/01 10:37:51;;;;;;;3.40;2.10;;;21.70;70.20;;;;;;6214768;23;19996;-83
2023/04/01 10:40:59;;;;;;;2.55;2.00;;;21.90;69.90;;;;;;6214585;23;20000;-84
2023/04/01 10:43:57;;;;;;;2.75;1.85;;;22.10;68.10;;;;;;6194068;23;20074;-84
2023/04/01 10:46:54;;;;;;;2.00;1.75;;;22.20;69.10;;;;;;6214380;23;20013;-85
2023/04/01 10:49:37;;;;;;;3.85;2.40;;;22.40;68.80;;;;;;6214330;23;20071;-85
2023/04/01 10:52:24;;;;;;;2.85;2.20;;;22.40;66.20;;;;;;6214596;23;20005;-85
2023/04/01 10:55:42;;;;;;;3.13;2.03;;;22.40;67.30;;;;;;6215279;23;19997;-85
2023/04/01 10:58:14;;;;;;;2.35;2.03;;;22.60;66.30;;;;;;6108352;23;20082;-85
2023/04/01 11:00:57;;;;;;;3.95;2.70;;;22.60;65.70;;;;;;6215650;23;20378;-85
2023/04/01 11:03:23;;;;;;;3.85;2.20;;;22.70;66.30;;;;;;6214914;23;20005;-85
2023/04/01 11:06:10;;;;;;;4.38;1.95;;;22.80;66.50;;;;;;6188389;23;20009;-85
2023/04/01 11:09:03;;;;;;;2.25;1.92;;;23.00;65.90;;;;;;6214772;23;20004;-86
2023/04/01 11:11:45;;;;;;;3.08;1.88;;;23.20;66.60;;;;;;6215028;23;20008;-85
2023/04/01 11:14:29;;;;;;;2.70;2.10;;;23.30;65.80;;;;;;6214962;23;19996;-85
2023/04/01 11:17:00;;;;;;;2.60;2.10;;;23.50;65.30;;;;;;6215037;23;20008;-85
2023/04/01 11:19:45;;;;;;;2.78;2.30;;;23.60;65.20;;;;;;6214953;23;20374;-84
2023/04/01 11:22:37;;;;;;;3.03;2.50;;;23.70;63.50;;;;;;6214699;23;20012;-84
2023/04/01 11:25:36;;;;;;;4.53;2.65;;;23.80;64.00;;;;;;6214397;23;20016;-84
2023/04/01 11:28:35;;;;;;;5.05;3.80;;;24.00;63.50;;;;;;6214403;23;20075;-85
2023/04/01 11:31:21;;;;;;;12.57;6.10;;;24.00;63.80;;;;;;6214883;23;20007;-83
2023/04/01 11:33:50;;;;;;;7.43;5.43;;;24.10;63.20;;;;;;6213640;23;20000;-83
2023/04/01 11:36:49;;;;;;;7.57;5.47;;;24.40;64.00;;;;;;6215104;23;20000;-83
2023/04/01 11:39:45;;;;;;;8.35;5.53;;;24.80;63.20;;;;;;6212722;23;20521;-82
2023/04/01 11:42:35;;;;;;;4.43;4.03;;;26.10;61.80;;;;;;6197833;23;20008;-83
2023/04/01 11:45:37;;;;;;;5.38;3.72;;;27.50;58.40;;;;;;6188388;23;20317;-83
2023/04/01 11:48:22;;;;;;;4.15;3.55;;;28.70;53.70;;;;;;6215657;23;20028;-83
2023/04/01 11:51:07;;;;;;;6.28;3.47;;;29.70;53.10;;;;;;6189042;23;20004;-83
2023/04/01 11:53:58;;;;;;;4.95;3.97;;;30.50;51.50;;;;;;6215128;23;20051;-83
2023/04/01 11:56:38;;;;;;;4.90;3.53;;;31.20;48.80;;;;;;6214888;23;20031;-83
2023/04/01 11:59:28;;;;;;;5.20;3.83;;;31.70;48.00;;;;;;6215730;23;20062;-83
2023/04/01 12:02:13;;;;;;;12.00;4.85;;;32.00;46.70;;;;;;6215258;23;20011;-82
2023/04/01 12:04:45;;;;;;;4.85;4.40;;;32.20;46.00;;;;;;6215046;23;20028;-83
2023/04/01 12:07:37;;;;;;;5.40;4.20;;;32.10;46.00;;;;;;6215275;23;20005;-83
2023/04/01 12:10:17;;;;;;;6.40;4.72;;;32.20;45.50;;;;;;6215563;23;20040;-83
2023/04/01 12:13:20;;;;;;;5.22;4.72;;;32.30;45.60;;;;;;6215672;23;20010;-83
2023/04/01 12:15:55;;;;;;;7.38;5.40;;;32.30;44.40;;;;;;6215572;23;19996;-83
2023/04/01 12:18:42;;;;;;;5.50;4.50;;;32.10;45.00;;;;;;6214863;23;20415;-83
2023/04/01 12:21:36;;;;;;;7.10;5.25;;;31.80;44.50;;;;;;6215358;23;20023;-82
2023/04/01 12:24:23;;;;;;;6.28;5.05;;;31.50;45.10;;;;;;6215378;23;20000;-83
2023/04/01 12:27:14;;;;;;;6.35;4.53;;;31.30;45.60;;;;;;6188229;23;20043;-83
2023/04/01 12:30:25;;;;;;;6.13;5.18;;;31.20;45.80;;;;;;6214224;23;20050;-83
2023/04/01 12:32:51;;;;;;;5.88;4.32;;;31.10;45.10;;;;;;6206198;23;20427;-83
2023/04/01 12:35:41;;;;;;;9.05;5.72;;;31.00;45.30;;;;;;6215073;23;20112;-82
2023/04/01 12:38:28;;;;;;;6.13;4.30;;;31.00;44.70;;;;;;6214822;23;20005;-83
2023/04/01 12:41:20;;;;;;;7.32;4.00;;;31.10;45.60;;;;;;6214316;23;20047;-83
2023/04/01 12:44:26;;;;;;;4.25;3.80;;;31.40;44.70;;;;;;6214208;23;20330;-83
2023/04/01 12:47:20;;;;;;;3.70;3.35;;;31.70;43.70;;;;;;6215147;23;20007;-83
2023/04/01 12:50:14;;;;;;;3.88;3.50;;;32.00;43.70;;;;;;6214718;23;20004;-83
2023/04/01 12:53:03;;;;;;;3.67;3.30;;;32.30;42.90;;;;;;6188275;23;20334;-83
2023/04/01 12:55:44;;;;;;;4.70;3.65;;;32.50;42.10;;;;;;6214369;23;20001;-83
2023/04/01 12:58:31;;;;;;;4.72;3.60;;;32.70;42.50;;;;;;6188379;23;20383;-83
2023/04/01 13:01:14;;;;;;;6.32;3.50;;;32.90;41.60;;;;;;6215011;23;20036;-83
2023/04/01 13:04:01;;;;;;;5.47;3.78;;;33.10;41.30;;;;;;6214802;23;20005;-83
2023/04/01 13:06:55;;;;;;;4.68;3.42;;;33.20;40.60;;;;;;6214840;23;20015;-83
2023/04/01 13:09:27;;;;;;;5.30;3.58;;;32.90;40.30;;;;;;6188524;23;20237;-83
2023/04/01 13:12:19;;;;;;;6.43;5.03;;;32.60;40.20;;;;;;6188385;23;20378;-82
2023/04/01 13:15:03;;;;;;;6.00;4.13;;;31.90;40.50;;;;;;6214865;23;20004;-82
2023/04/01 13:18:11;;;;;;;6.47;4.72;;;30.90;42.20;;;;;;6214048;23;20000;-82
2023/04/01 13:21:14;;;;;;;5.82;4.50;;;29.90;43.00;;;;;;6164358;23;20009;-82
2023/04/01 13:24:22;;;;;;;6.78;4.72;;;28.80;44.40;;;;;;6082813;23;20430;-82
2023/04/01 13:27:18;;;;;;;5.90;4.55;;;27.90;46.20;;;;;;6214520;23;20343;-82
2023/04/01 13:30:10;;;;;;;8.25;4.60;;;27.20;47.90;;;;;;6214542;23;20008;-82
2023/04/01 13:32:54;;;;;;;6.25;4.97;;;26.40;47.90;;;;;;6215014;23;20012;-82
2023/04/01 13:35:52;;;;;;;5.60;4.53;;;25.60;48.70;;;;;;6214775;23;20023;-82